Language selection

Weather shortcuts

Pacific - North Coast: Past 24 Hour Conditions

 

South Nomad - 46036

07:00 AM PST 28 February 2024Buoy position: 48.35N 133.95W
Disclaimer

This table is a summary of hourly weather conditions for the past 24 hours.
Please note that these observations might not always be representative of weather conditions over their associated marine area.

Date / Time
(PST)
Wind(knots) Wave height(m) Wave period(s) Pressure(kPa) Air tempC) Water tempC)
28 February 2024
7:00 WSW 18 gusts 23 3.70 11.6 99.6 N/A 9
6:00 SSW 15 gusts 19 3.50 10.7 99.7 N/A 9
5:00 SW 14 gusts 20 3.30 9.1 99.7 N/A 9
4:00 WSW 12 gusts 17 3.10 10.7 99.7 N/A 9
3:00 SW 15 gusts 23 3.20 9.8 99.8 N/A 9
2:00 SW 13 gusts 17 3.20 10.2 99.9 N/A 9
1:00 WSW 12 gusts 16 3.20 9.8 100.0 N/A 9
0:00 SW 9 gusts 11 3.10 9.5 100.1 N/A 9
27 February 2024
23:00 SW 7 gusts 10 3.10 9.8 100.2 N/A 9
22:00 WSW 10 gusts 14 3.10 9.8 100.3 N/A 9
21:00 W 12 gusts 15 3.20 9.5 100.4 N/A 9
20:00 SW 13 gusts 17 3.30 8.8 100.5 N/A 9
19:00 WSW 13 gusts 16 3.10 9.8 100.6 N/A 9
18:00 W 13 gusts 16 3.30 9.1 100.6 N/A 9
17:00 WSW 17 gusts 20 3.40 9.5 100.6 N/A 9
16:00 SSW 21 gusts 26 3.80 8.5 100.7 N/A 9
15:00 SW 21 N/A N/A 100.8 N/A 9
14:00 SW 22 gusts 28 3.60 8.5 100.8 N/A 9
13:00 SW 24 gusts 29 3.60 9.1 100.9 N/A 9
12:00 S 23 gusts 29 3.50 8.3 101.0 N/A 9
11:00 WSW 23 gusts 30 3.50 9.1 101.0 N/A 9
10:00 S 23 gusts 29 3.30 8.3 101.0 N/A 9
9:00 SSW 22 gusts 28 3.10 10.7 101.0 N/A 9
8:00 SSW 22 gusts 28 3.20 7.3 101.1 N/A 9
7:00 SSW 21 gusts 24 2.90 6.9 101.1 N/A 9

Zoom-in to make a selection

Map of Pacific - North Coast marine weather areas Middle Nomad - 46004 South Nomad - 46036 Dixon Entrance Central - 46145 South Moresby - 46147 Nanakwa Shoal - 46181 North Hecate Strait - 46183 North Nomad - 46184 South Hecate Strait - 46185 West Sea Otter - 46204 West Dixon Entrance - 46205 East Dellwood - 46207 West Moresby - 46208 Sartine Island Cape St.James Kindakun Rocks Langara Island Masset Municipal Airport Rose Spit Sandspit Airport Bella Bella Airport Bella Coola Airport Bonilla Island Cathedral Point Cumshewa Island Grey Islet Holland Rock Lucy Islands Lightstation Prince Rupert Airport
Legend:
buoy Buoy
land station Land Station

Pacific - North Coast Area

Another Region

Date modified: